Time;durP1;ratioP1;P1;durP2;ratioP2;P2;SDS_P1;SDS_P2;PMS_P1;PMS_P2;Temp;Humidity;BMP_temperature;BMP_pressure;BME280_temperature;BME280_humidity;BME280_pressure;Samples;Min_cycle;Max_cycle;Signal;HPM_P1;HPM_P2
2022/09/19 00:01:36;;;;;;;0.52;0.10;;;;;;;9.80;62.65;99849.78;4967808;28;98475;-65
2022/09/19 00:04:09;;;;;;;0.35;0.00;;;;;;;9.80;63.13;99850.56;4938005;28;97730;-65
2022/09/19 00:06:45;;;;;;;0.52;0.00;;;;;;;9.78;62.69;99849.22;4947876;28;111220;-71
2022/09/19 00:09:17;;;;;;;0.50;0.10;;;;;;;9.79;63.04;99848.97;4975391;28;97202;-65
2022/09/19 00:11:46;;;;;;;0.20;0.00;;;;;;;9.78;62.92;99849.22;4960272;28;97504;-71
2022/09/19 00:14:14;;;;;;;2.00;0.08;;;;;;;9.77;62.93;99851.13;4960157;28;97561;-65
2022/09/19 00:16:45;;;;;;;0.50;0.10;;;;;;;9.77;62.54;99844.94;4944371;28;99984;-72
2022/09/19 00:19:17;;;;;;;0.43;0.00;;;;;;;9.74;62.92;99851.66;4947594;28;97525;-72
2022/09/19 00:21:46;;;;;;;0.22;0.05;;;;;;;9.71;63.08;99841.47;4962367;28;97481;-72
2022/09/19 00:27:02;;;;;;;0.20;0.00;;;;;;;9.76;63.51;99846.03;4960888;28;97345;-66
2022/09/19 00:29:28;;;;;;;0.13;0.00;;;;;;;9.74;63.40;99848.97;4958588;28;98967;-66
2022/09/19 00:31:55;;;;;;;0.20;0.00;;;;;;;9.75;63.25;99849.81;4946132;28;97401;-66
2022/09/19 00:34:30;;;;;;;0.25;0.00;;;;;;;9.75;63.43;99855.97;4940019;28;101827;-71
2022/09/19 00:36:56;;;;;;;0.10;0.00;;;;;;;9.78;63.40;99854.59;4958179;28;97459;-71
2022/09/19 00:39:22;;;;;;;0.20;0.00;;;;;;;9.76;63.61;99854.91;4926348;28;119146;-71
2022/09/19 00:41:50;;;;;;;0.90;0.00;;;;;;;9.77;63.69;99853.00;4941054;28;97373;-71
2022/09/19 00:44:23;;;;;;;0.50;0.00;;;;;;;9.77;63.02;99853.00;4952065;28;98078;-66
2022/09/19 00:46:55;;;;;;;0.30;0.00;;;;;;;9.77;63.12;99847.63;4984605;28;97935;-66
2022/09/19 00:49:21;;;;;;;0.15;0.00;;;;;;;9.80;63.88;99852.47;4960130;28;97969;-71
2022/09/19 00:51:54;;;;;;;0.35;0.00;;;;;;;9.81;63.57;99854.06;4933910;28;97892;-71
2022/09/19 00:54:23;;;;;;;0.20;0.00;;;;;;;9.80;63.63;99852.47;4963796;28;97439;-71
2022/09/19 00:56:52;;;;;;;0.15;0.00;;;;;;;9.80;63.31;99855.16;4946420;28;97874;-71
2022/09/19 00:59:19;;;;;;;0.38;0.00;;;;;;;9.81;64.29;99856.75;4944211;28;97906;-65
2022/09/19 01:01:46;;;;;;;0.15;0.00;;;;;;;9.80;64.08;99850.56;4946067;28;97853;-65
2022/09/19 01:04:22;;;;;;;0.10;0.00;;;;;;;9.80;63.80;99855.16;4947073;28;115035;-71
2022/09/19 01:07:13;;;;;;;0.10;0.00;;;;;;;9.81;63.51;99860.25;4943778;28;99596;-65
2022/09/19 01:10:23;;;;;;;0.00;0.00;;;;;;;9.80;63.14;99858.66;4972397;28;97747;-66
2022/09/19 01:13:11;;;;;;;0.22;0.00;;;;;;;9.81;63.08;99862.13;4980260;28;97255;-65
2022/09/19 01:15:43;;;;;;;0.20;0.00;;;;;;;9.81;63.87;99865.63;4972455;28;108393;-65
2022/09/19 01:18:09;;;;;;;0.23;0.07;;;;;;;9.81;63.87;99870.22;4999497;28;97611;-65
2022/09/19 01:20:53;;;;;;;0.15;0.03;;;;;;;9.82;63.58;99874.50;4943380;28;97844;-65
2022/09/19 01:24:04;;;;;;;0.30;0.00;;;;;;;9.82;63.47;99880.72;4940774;28;97692;-71
2022/09/19 01:26:58;;;;;;;0.30;0.00;;;;;;;9.85;63.63;99876.66;4952007;28;97938;-70
2022/09/19 01:29:32;;;;;;;0.20;0.00;;;;;;;9.86;63.95;99882.84;4978792;28;97569;-65
2022/09/19 01:31:58;;;;;;;0.30;0.10;;;;;;;9.88;63.91;99878.00;4922096;28;97975;-65
2022/09/19 01:34:39;;;;;;;0.20;0.10;;;;;;;9.88;63.69;99881.50;4964072;28;97397;-65
2022/09/19 01:37:20;;;;;;;0.60;0.13;;;;;;;9.88;63.80;99880.69;4960669;28;97988;-65
2022/09/19 01:39:49;;;;;;;0.60;0.10;;;;;;;9.92;64.30;99884.44;4976118;28;100356;-65
2022/09/19 01:42:24;;;;;;;1.10;0.20;;;;;;;9.92;64.19;99889.81;4924979;28;98032;-70
2022/09/19 01:44:52;;;;;;;0.73;0.28;;;;;;;9.91;64.04;99894.41;4962802;28;97293;-65
2022/09/19 01:47:49;;;;;;;0.95;0.30;;;;;;;9.90;63.75;99900.06;4962387;28;98861;-65
2022/09/19 01:50:18;;;;;;;0.90;0.25;;;;;;;9.92;63.72;99897.91;4995234;28;98051;-65
2022/09/19 01:53:37;;;;;;;1.05;0.20;;;;;;;9.91;63.68;99899.00;4994880;28;98097;-65
2022/09/19 01:56:41;;;;;;;1.10;0.20;;;;;;;9.89;63.63;99903.84;4965373;28;97716;-65
2022/09/19 01:59:38;;;;;;;0.82;0.10;;;;;;;9.92;63.71;99908.66;4936003;28;97902;-65
2022/09/19 02:02:22;;;;;;;0.30;0.10;;;;;;;9.92;63.59;99906.78;4988870;28;97717;-65
2022/09/19 02:05:15;;;;;;;0.90;0.10;;;;;;;9.92;63.75;99908.66;4997789;28;97532;-70
2022/09/19 02:07:51;;;;;;;0.40;0.10;;;;;;;9.94;63.29;99912.72;4957576;28;98142;-70
2022/09/19 02:10:32;;;;;;;0.30;0.10;;;;;;;9.92;64.02;99916.75;4962008;28;97707;-65
2022/09/19 02:12:59;;;;;;;0.68;0.10;;;;;;;9.93;64.20;99919.16;4959293;28;98248;-65
2022/09/19 02:15:32;;;;;;;0.60;0.17;;;;;;;9.95;64.06;99921.59;4928514;28;99367;-70
2022/09/19 02:18:53;;;;;;;1.15;0.20;;;;;;;9.94;64.14;99926.16;4957007;28;97481;-70
2022/09/19 02:21:25;;;;;;;0.90;0.22;;;;;;;9.97;63.85;99924.78;4983297;28;98413;-65
2022/09/19 02:23:55;;;;;;;0.43;0.15;;;;;;;9.97;64.21;99932.88;4962264;28;99645;-70
2022/09/19 02:26:22;;;;;;;0.85;0.40;;;;;;;9.97;64.29;99936.38;4960656;28;97699;-65
2022/09/19 02:28:55;;;;;;;1.35;0.30;;;;;;;9.99;64.14;99931.53;4981995;28;98047;-70
2022/09/19 02:31:26;;;;;;;1.30;0.32;;;;;;;10.00;64.62;99940.41;4978812;28;98525;-65
2022/09/19 02:33:58;;;;;;;1.75;0.20;;;;;;;10.02;64.73;99949.81;4988895;28;97899;-65
2022/09/19 02:36:53;;;;;;;1.08;0.40;;;;;;;10.05;64.13;99945.75;4982318;28;97910;-70
2022/09/19 02:39:26;;;;;;;1.80;0.50;;;;;;;10.13;64.69;99941.69;4975147;28;97750;-65
2022/09/19 02:42:09;;;;;;;2.70;0.50;;;;;;;10.19;64.13;99951.38;4981260;28;98601;-65
2022/09/19 02:44:52;;;;;;;2.30;0.73;;;;;;;10.24;64.15;99952.13;4959864;28;104248;-70
2022/09/19 02:47:55;;;;;;;2.00;0.45;;;;;;;10.28;64.20;99949.72;5002547;28;97522;-71
2022/09/19 02:50:30;;;;;;;;;;;;;;;10.31;63.91;99951.88;4979681;28;97602;-65
2022/09/19 02:52:58;;;;;;;1.10;0.30;;;;;;;10.33;64.59;99955.06;4996615;28;98022;-70
2022/09/19 02:55:30;;;;;;;2.10;0.57;;;;;;;10.36;64.30;99962.59;4977521;28;103545;-70
2022/09/19 02:58:00;;;;;;;1.20;0.40;;;;;;;10.38;64.04;99963.16;4943678;28;99430;-65
2022/09/19 03:00:28;;;;;;;1.75;0.55;;;;;;;10.41;64.02;99959.06;4959456;28;97934;-71
2022/09/19 03:05:57;;;;;;;1.75;0.40;;;;;;;10.41;63.86;99964.47;4980668;28;97834;-66
2022/09/19 03:08:24;;;;;;;1.35;0.43;;;;;;;10.41;64.65;99969.84;4962086;28;111577;-65
2022/09/19 03:10:53;;;;;;;0.95;0.30;;;;;;;10.43;64.02;99965.00;4957531;28;97564;-65
2022/09/19 03:13:26;;;;;;;1.65;0.40;;;;;;;10.43;64.47;99967.69;4949730;28;97528;-71
2022/09/19 03:15:58;;;;;;;;;;;;;;;10.36;63.27;99970.69;4961480;28;97689;-66
2022/09/19 03:18:26;;;;;;;1.40;0.40;;;;;;;10.36;64.20;99976.09;4961349;28;97586;-70
2022/09/19 03:20:55;;;;;;;2.08;0.47;;;;;;;10.36;64.51;99981.47;4978613;28;97466;-65
2022/09/19 03:23:32;;;;;;;4.82;0.60;;;;;;;10.37;64.23;99982.28;4939188;28;97837;-65
2022/09/19 03:25:58;;;;;;;1.45;0.45;;;;;;;10.36;64.36;99991.44;4988660;28;97786;-65
2022/09/19 03:28:24;;;;;;;1.13;0.40;;;;;;;10.36;64.62;99994.13;4934531;28;106823;-66
2022/09/19 03:30:51;;;;;;;1.70;0.40;;;;;;;10.35;64.11;99996.03;4965462;28;97572;-65
2022/09/19 03:33:18;;;;;;;2.20;0.40;;;;;;;10.31;64.06;99998.47;4964017;28;98061;-70
2022/09/19 03:35:50;;;;;;;1.02;0.30;;;;;;;10.31;64.31;100009.25;4962106;28;99766;-70
2022/09/19 03:38:16;;;;;;;1.10;0.25;;;;;;;10.29;64.29;100011.41;4960128;28;97248;-65
2022/09/19 03:40:43;;;;;;;0.73;0.20;;;;;;;10.29;64.57;100016.78;4961240;28;97600;-65
2022/09/19 03:43:14;;;;;;;2.30;0.40;;;;;;;10.30;64.32;100014.91;4964631;28;115449;-70
2022/09/19 03:45:43;;;;;;;0.70;0.20;;;;;;;10.30;64.28;100020.31;4996715;28;99148;-70
2022/09/19 03:48:09;;;;;;;0.82;0.25;;;;;;;10.29;64.61;100024.88;4977550;28;108424;-66
2022/09/19 03:50:36;;;;;;;1.50;0.30;;;;;;;10.31;64.24;100027.31;4960927;28;97439;-70
2022/09/19 03:53:06;;;;;;;0.63;0.20;;;;;;;10.28;64.23;100023.25;4960194;28;97736;-66
2022/09/19 03:55:37;;;;;;;0.70;0.20;;;;;;;10.27;64.77;100031.63;4964656;28;97824;-70
2022/09/19 03:58:04;;;;;;;1.27;0.30;;;;;;;10.27;64.69;100028.94;4940774;28;99137;-65
2022/09/19 04:00:31;;;;;;;0.80;0.20;;;;;;;10.26;64.27;100032.72;4946693;28;117346;-65
2022/09/19 04:02:57;;;;;;;2.47;0.32;;;;;;;10.24;64.07;100038.34;4957115;28;97689;-66
2022/09/19 04:05:24;;;;;;;0.63;0.20;;;;;;;10.22;64.76;100034.31;4976242;28;97642;-65
2022/09/19 04:07:50;;;;;;;1.40;0.40;;;;;;;10.22;64.63;100035.13;4946491;28;97652;-65
2022/09/19 04:10:16;;;;;;;0.73;0.20;;;;;;;10.19;64.55;100034.84;4965360;28;97268;-65
2022/09/19 04:12:44;;;;;;;1.77;0.20;;;;;;;10.19;64.44;100042.94;4964602;28;97759;-65
2022/09/19 04:15:13;;;;;;;0.93;0.30;;;;;;;10.18;64.32;100036.75;4980762;28;100052;-71
2022/09/19 04:17:42;;;;;;;0.95;0.30;;;;;;;10.14;64.76;100041.06;4978802;28;98967;-70
2022/09/19 04:20:10;;;;;;;1.23;0.30;;;;;;;10.14;64.53;100040.25;4993336;28;97189;-70
2022/09/19 04:22:38;;;;;;;1.67;0.28;;;;;;;10.13;64.27;100047.53;4959198;28;97438;-70
2022/09/19 04:25:10;;;;;;;1.05;0.17;;;;;;;10.13;64.98;100052.91;4994660;28;98154;-70
2022/09/19 04:27:38;;;;;;;;;;;;;;;10.07;64.23;100052.13;4965873;28;97651;-70
2022/09/19 04:30:07;;;;;;;2.03;0.20;;;;;;;10.09;63.93;100062.63;4984510;28;98106;-70
2022/09/19 04:32:34;;;;;;;1.98;0.30;;;;;;;10.08;64.49;100061.00;4967363;28;98019;-70
2022/09/19 04:35:01;;;;;;;1.17;0.30;;;;;;;10.09;64.33;100070.69;4964379;28;97547;-65
2022/09/19 04:37:29;;;;;;;1.10;0.28;;;;;;;10.09;64.52;100065.31;4980528;28;97544;-70
2022/09/19 04:39:56;;;;;;;0.75;0.17;;;;;;;10.11;64.28;100067.75;4968768;28;98040;-65
2022/09/19 04:42:23;;;;;;;2.15;0.30;;;;;;;10.11;64.65;100071.25;4982861;28;122979;-65
2022/09/19 04:44:50;;;;;;;0.50;0.10;;;;;;;10.12;65.22;100077.44;5000500;28;97829;-65
2022/09/19 04:47:18;;;;;;;0.88;0.20;;;;;;;10.14;64.64;100073.41;4963713;28;99008;-70
2022/09/19 04:49:44;;;;;;;3.30;0.30;;;;;;;10.13;64.38;100082.53;4981950;28;98486;-65
2022/09/19 04:52:12;;;;;;;1.38;0.30;;;;;;;10.17;64.46;100080.09;4981894;27;97661;-65
2022/09/19 04:54:41;;;;;;;0.63;0.20;;;;;;;10.18;64.65;100087.09;4984135;28;97905;-70
2022/09/19 04:57:07;;;;;;;1.50;0.30;;;;;;;10.20;64.86;100083.06;4968945;28;97933;-70
2022/09/19 04:59:35;;;;;;;1.65;0.30;;;;;;;10.22;64.68;100089.00;4967000;28;97561;-70
2022/09/19 05:02:06;;;;;;;1.50;0.20;;;;;;;10.23;64.90;100090.59;4981984;28;97497;-70
2022/09/19 05:04:33;;;;;;;2.25;0.30;;;;;;;10.22;64.34;100096.28;4983514;28;98202;-66
2022/09/19 05:06:59;;;;;;;1.33;0.30;;;;;;;10.22;64.87;100096.28;4942268;28;98051;-65
2022/09/19 05:09:26;;;;;;;0.80;0.20;;;;;;;10.24;64.45;100094.09;4982906;28;98264;-65
2022/09/19 05:11:56;;;;;;;0.95;0.20;;;;;;;10.26;64.46;100102.75;4941543;28;97981;-65
2022/09/19 05:14:25;;;;;;;0.80;0.20;;;;;;;10.28;64.50;100109.47;4968726;28;100134;-70
2022/09/19 05:16:54;;;;;;;0.80;0.20;;;;;;;10.31;64.99;100108.94;4966585;28;99437;-70
2022/09/19 05:19:22;;;;;;;0.95;0.30;;;;;;;10.38;64.66;100113.22;4978688;28;97973;-65
2022/09/19 05:21:50;;;;;;;0.70;0.20;;;;;;;10.43;64.22;100105.13;4973967;28;98118;-65
2022/09/19 05:24:16;;;;;;;0.50;0.13;;;;;;;10.43;64.46;100118.59;4999989;28;97795;-65
2022/09/19 05:26:42;;;;;;;1.75;0.20;;;;;;;10.41;64.81;100113.47;4969241;28;97469;-65
2022/09/19 05:29:09;;;;;;;1.23;0.30;;;;;;;10.38;64.43;100119.41;4982893;28;97839;-65
2022/09/19 05:31:36;;;;;;;3.30;0.28;;;;;;;10.41;64.39;100118.03;4977413;28;97822;-65
2022/09/19 05:34:03;;;;;;;2.30;0.30;;;;;;;10.43;64.38;100119.41;4964324;28;99721;-65
2022/09/19 05:36:30;;;;;;;3.85;0.20;;;;;;;10.48;64.64;100119.38;4962118;28;97484;-65
2022/09/19 05:38:57;;;;;;;1.13;0.30;;;;;;;10.52;64.65;100122.31;4941729;28;98034;-65
2022/09/19 05:41:23;;;;;;;1.40;0.20;;;;;;;10.53;64.49;100122.06;4966708;28;97358;-65
2022/09/19 05:43:50;;;;;;;1.20;0.20;;;;;;;10.60;64.51;100123.66;4983989;27;100793;-65
2022/09/19 05:46:17;;;;;;;0.90;0.30;;;;;;;10.60;64.70;100121.75;4947355;28;97703;-65
2022/09/19 05:48:43;;;;;;;1.17;0.30;;;;;;;10.60;64.73;100126.34;4949420;28;97953;-65
2022/09/19 05:51:09;;;;;;;1.10;0.30;;;;;;;10.59;64.79;100128.22;4963568;28;97647;-65
2022/09/19 05:53:56;;;;;;;1.20;0.40;;;;;;;10.58;64.94;100126.63;4964573;28;115699;-65
2022/09/19 05:56:23;;;;;;;0.55;0.20;;;;;;;10.55;64.79;100133.38;4982743;28;97410;-65
2022/09/19 05:58:53;;;;;;;2.47;0.40;;;;;;;10.55;64.39;100129.88;4963249;28;97872;-65
2022/09/19 06:01:20;;;;;;;2.42;0.50;;;;;;;10.56;65.03;100134.16;4939924;28;97477;-65
2022/09/19 06:03:46;;;;;;;3.15;0.52;;;;;;;10.56;65.39;100142.25;4966006;28;97833;-65
2022/09/19 06:06:18;;;;;;;1.13;0.35;;;;;;;10.56;64.96;100132.28;4963923;28;114079;-65
2022/09/19 06:08:55;;;;;;;1.98;0.60;;;;;;;10.56;65.13;100148.44;4945462;28;97373;-70
2022/09/19 06:11:23;;;;;;;0.93;0.30;;;;;;;10.55;64.55;100140.66;4982144;28;100672;-70
2022/09/19 06:16:35;;;;;;;1.60;0.40;;;;;;;10.54;64.87;100145.22;4984929;28;97630;-65
2022/09/19 06:19:01;;;;;;;1.75;0.50;;;;;;;10.56;64.88;100145.75;4975457;27;97469;-65
2022/09/19 06:21:31;;;;;;;2.03;0.70;;;;;;;10.57;64.91;100147.38;4982053;28;126936;-65
2022/09/19 06:23:58;;;;;;;1.50;0.55;;;;;;;10.61;65.06;100150.34;4960147;28;97612;-65
2022/09/19 06:26:24;;;;;;;1.20;0.40;;;;;;;10.64;64.81;100157.06;4965311;28;97439;-64
2022/09/19 06:28:51;;;;;;;1.58;0.60;;;;;;;10.68;64.71;100150.03;4981858;28;97806;-65
2022/09/19 06:31:18;;;;;;;1.90;0.60;;;;;;;10.74;64.59;100163.22;4973524;28;97639;-65
2022/09/19 06:33:44;;;;;;;3.45;0.73;;;;;;;10.77;65.29;100157.28;4961866;28;97608;-65
2022/09/19 06:36:10;;;;;;;1.65;0.68;;;;;;;10.78;65.01;100169.69;4988128;28;97883;-65
2022/09/19 06:38:40;;;;;;;2.40;0.90;;;;;;;10.80;64.97;100172.09;4959378;28;97672;-65
2022/09/19 06:41:08;;;;;;;2.97;0.77;;;;;;;10.86;64.99;100162.91;4963718;28;97854;-65
2022/09/19 06:43:34;;;;;;;1.88;0.70;;;;;;;10.94;65.44;100169.63;4956496;28;97729;-65
2022/09/19 06:46:00;;;;;;;1.83;0.85;;;;;;;11.00;64.78;100173.88;4936536;28;129553;-65
2022/09/19 06:48:26;;;;;;;2.55;0.65;;;;;;;11.00;64.85;100169.31;4960665;28;116662;-65
2022/09/19 06:50:52;;;;;;;1.88;0.60;;;;;;;11.00;64.83;100179.28;4977052;28;129250;-65
2022/09/19 06:53:19;;;;;;;3.45;0.60;;;;;;;10.99;65.41;100178.47;4978863;28;127025;-66
2022/09/19 06:55:45;;;;;;;3.05;0.88;;;;;;;10.95;65.31;100180.13;4959768;28;97673;-65
2022/09/19 06:58:12;;;;;;;1.88;0.52;;;;;;;10.95;65.53;100182.00;4961328;28;97642;-65
2022/09/19 07:00:40;;;;;;;1.90;0.80;;;;;;;10.96;65.37;100199.81;4959254;28;100032;-65
2022/09/19 07:03:09;;;;;;;2.15;0.77;;;;;;;10.98;65.26;100192.25;4962678;28;97660;-65
2022/09/19 07:05:36;;;;;;;2.30;0.80;;;;;;;10.98;65.58;100206.53;4974229;28;99372;-65
2022/09/19 07:08:03;;;;;;;2.30;0.63;;;;;;;11.00;65.32;100204.38;4970763;28;97583;-66
2022/09/19 07:10:29;;;;;;;2.47;0.73;;;;;;;11.02;65.11;100207.59;4978421;28;109741;-65
2022/09/19 07:13:01;;;;;;;1.67;0.57;;;;;;;11.07;65.09;100204.06;4980033;28;98130;-65
2022/09/19 07:15:35;;;;;;;1.93;0.77;;;;;;;11.18;64.98;100213.72;4980659;28;97961;-65
2022/09/19 07:18:01;;;;;;;2.58;0.70;;;;;;;11.17;65.30;100217.53;4964235;28;97765;-65
2022/09/19 07:20:28;;;;;;;3.25;0.90;;;;;;;11.17;65.09;100217.53;4965337;28;100033;-65
2022/09/19 07:23:03;;;;;;;2.15;0.50;;;;;;;11.21;64.71;100221.28;4946535;28;112754;-65
2022/09/19 07:25:31;;;;;;;2.17;0.65;;;;;;;11.25;65.15;100225.03;4962993;28;98332;-71
2022/09/19 07:28:04;;;;;;;2.15;0.50;;;;;;;11.26;65.19;100229.34;4958862;28;97655;-71
2022/09/19 07:30:32;;;;;;;;;;;;;;;11.27;64.64;100233.66;4965936;28;98339;-71
2022/09/19 07:32:59;;;;;;;2.15;0.60;;;;;;;11.35;64.96;100231.47;4997198;28;98649;-66
2022/09/19 07:35:29;;;;;;;1.58;0.50;;;;;;;11.38;64.99;100231.72;4994323;28;99094;-65
2022/09/19 07:37:56;;;;;;;1.92;0.63;;;;;;;11.42;64.95;100237.38;4965243;28;97249;-65
2022/09/19 07:40:26;;;;;;;2.95;0.47;;;;;;;11.39;65.39;100243.31;4980921;28;109389;-70
2022/09/19 07:42:52;;;;;;;1.67;0.32;;;;;;;11.44;65.25;100248.69;4963015;28;97761;-70
2022/09/19 07:45:19;;;;;;;2.38;0.40;;;;;;;11.54;65.14;100251.34;4962606;28;97856;-66
2022/09/19 07:47:46;;;;;;;1.05;0.40;;;;;;;11.67;64.95;100252.59;4980153;28;97563;-65
2022/09/19 07:50:16;;;;;;;1.85;0.40;;;;;;;11.69;64.88;100251.25;4959176;28;99453;-67
2022/09/19 07:53:04;;;;;;;1.00;0.38;;;;;;;11.71;64.59;100259.06;4961610;28;100507;-70
2022/09/19 07:55:41;;;;;;;2.38;0.63;;;;;;;11.74;64.93;100261.19;4961852;28;97786;-70
2022/09/19 07:58:13;;;;;;;1.05;0.32;;;;;;;11.76;64.49;100262.53;4961710;28;97505;-71
2022/09/19 08:00:46;;;;;;;1.77;0.45;;;;;;;11.78;64.90;100273.84;4978600;28;97896;-71
2022/09/19 08:03:15;;;;;;;0.57;0.20;;;;;;;11.77;65.12;100269.56;4976768;28;98648;-65
2022/09/19 08:05:46;;;;;;;1.23;0.30;;;;;;;11.80;64.88;100277.09;4992516;28;97777;-71
2022/09/19 08:08:15;;;;;;;1.08;0.30;;;;;;;11.84;64.99;100277.38;4976923;28;97656;-71
2022/09/19 08:10:43;;;;;;;1.05;0.30;;;;;;;11.84;65.22;100284.69;4977048;28;99110;-71
2022/09/19 08:13:12;;;;;;;0.98;0.30;;;;;;;11.84;65.15;100288.19;4960789;28;97748;-71
2022/09/19 08:15:39;;;;;;;1.23;0.40;;;;;;;11.83;65.35;100288.41;4996208;28;97875;-71
2022/09/19 08:18:16;;;;;;;1.38;0.30;;;;;;;11.85;65.38;100299.78;4952490;28;97672;-65
2022/09/19 08:20:44;;;;;;;0.93;0.20;;;;;;;11.88;65.08;100307.34;4994218;28;97690;-71
2022/09/19 08:23:13;;;;;;;1.48;0.25;;;;;;;11.92;64.86;100305.69;4943313;28;98293;-71
2022/09/19 08:25:46;;;;;;;0.75;0.20;;;;;;;11.92;64.87;100308.41;4968203;28;98894;-66
2022/09/19 08:28:14;;;;;;;0.68;0.15;;;;;;;11.96;64.97;100310.25;4966781;28;97805;-65
2022/09/19 08:30:42;;;;;;;1.65;0.30;;;;;;;11.95;65.18;100318.66;4968789;28;100535;-65
2022/09/19 08:33:10;;;;;;;0.75;0.30;;;;;;;11.93;65.10;100308.09;4948440;28;97704;-70
2022/09/19 08:35:39;;;;;;;0.50;0.20;;;;;;;11.93;65.55;100318.91;4956356;28;97509;-65
2022/09/19 08:38:07;;;;;;;1.27;0.30;;;;;;;11.96;65.38;100315.66;4962259;28;99135;-65
2022/09/19 08:40:57;;;;;;;1.88;0.30;;;;;;;12.03;65.02;100335.06;4952702;28;100020;-70
2022/09/19 08:47:13;;;;;;;1.77;0.20;;;;;;;12.25;64.91;100331.94;4971600;28;99677;-70
2022/09/19 08:50:03;;;;;;;1.75;0.30;;;;;;;12.28;64.84;100334.06;4955283;28;97854;-66
2022/09/19 08:52:49;;;;;;;0.98;0.20;;;;;;;12.38;64.61;100341.31;4987167;28;97816;-66
2022/09/19 08:55:25;;;;;;;0.98;0.10;;;;;;;12.44;64.79;100348.28;4943829;28;97958;-70
2022/09/19 08:57:58;;;;;;;0.65;0.20;;;;;;;12.49;64.64;100345.53;4954364;28;97503;-66
2022/09/19 09:00:31;;;;;;;1.92;0.20;;;;;;;12.54;64.62;100360.91;4976851;28;97773;-70
2022/09/19 09:03:02;;;;;;;1.50;0.20;;;;;;;12.62;64.63;100356.81;4977619;28;97749;-70
2022/09/19 09:05:56;;;;;;;0.98;0.17;;;;;;;12.63;64.65;100347.59;4947458;28;99666;-71
2022/09/19 09:08:43;;;;;;;0.98;0.10;;;;;;;12.61;64.40;100363.28;4987485;28;97523;-71
2022/09/19 09:11:29;;;;;;;0.60;0.17;;;;;;;12.67;64.56;100365.66;4981123;28;97672;-65
2022/09/19 09:14:16;;;;;;;5.43;0.25;;;;;;;12.68;64.35;100367.28;4964966;28;98122;-70
2022/09/19 09:16:53;;;;;;;0.52;0.13;;;;;;;12.68;64.48;100372.69;4967846;28;97964;-65
2022/09/19 09:20:08;;;;;;;0.85;0.20;;;;;;;12.63;64.37;100369.22;4974743;28;97638;-65
2022/09/19 09:23:02;;;;;;;0.63;0.20;;;;;;;12.64;64.34;100374.34;4999343;28;97645;-70
2022/09/19 09:25:30;;;;;;;0.60;0.20;;;;;;;12.63;64.60;100375.44;4993126;28;98209;-68
2022/09/19 09:28:06;;;;;;;0.77;0.20;;;;;;;12.64;64.38;100379.75;4937414;28;97627;-65
2022/09/19 09:30:39;;;;;;;0.50;0.20;;;;;;;12.70;64.46;100377.81;4979816;28;97519;-65
2022/09/19 09:33:24;;;;;;;2.08;0.30;;;;;;;12.71;63.99;100380.25;4963550;28;97827;-70
2022/09/19 09:35:59;;;;;;;0.80;0.20;;;;;;;12.74;64.53;100381.59;4972232;28;113213;-65
2022/09/19 09:38:33;;;;;;;3.75;0.30;;;;;;;12.79;64.16;100386.94;5000086;28;98568;-70
2022/09/19 09:44:13;;;;;;;0.77;0.27;;;;;;;12.78;64.55;100388.03;4971641;28;97791;-65
2022/09/19 09:47:07;;;;;;;1.35;0.50;;;;;;;12.82;64.25;100394.50;4997730;28;100185;-70
2022/09/19 09:49:38;;;;;;;1.30;0.50;;;;;;;12.89;63.95;100388.72;4997152;28;98268;-70
2022/09/19 09:52:33;;;;;;;1.53;0.50;;;;;;;13.01;63.89;100384.59;4964788;28;97664;-65
2022/09/19 09:58:39;;;;;;;1.38;0.40;;;;;;;13.18;63.30;100381.44;5015037;28;97404;-70
2022/09/19 10:05:08;;;;;;;1.25;0.40;;;;;;;13.27;63.41;100387.03;5003596;27;97698;-65
2022/09/19 10:08:04;;;;;;;1.33;0.40;;;;;;;13.39;63.27;100387.44;4955645;28;97737;-65
2022/09/19 10:10:31;;;;;;;1.73;0.32;;;;;;;13.67;62.94;100391.19;4978012;28;98054;-65
2022/09/19 10:13:27;;;;;;;3.92;0.40;;;;;;;13.80;62.96;100391.59;4964740;28;97676;-65
2022/09/19 10:15:59;;;;;;;1.00;0.30;;;;;;;13.87;62.96;100394.75;4955049;28;99122;-65
2022/09/19 10:18:28;;;;;;;1.15;0.32;;;;;;;13.92;62.76;100387.38;4968625;28;97807;-65
2022/09/19 10:20:54;;;;;;;1.02;0.40;;;;;;;14.07;62.74;100397.19;4957674;28;97551;-65
2022/09/19 10:23:26;;;;;;;1.00;0.40;;;;;;;14.19;62.64;100394.84;4950414;28;97861;-65
2022/09/19 10:26:14;;;;;;;0.63;0.22;;;;;;;14.20;62.51;100392.94;4946937;28;97533;-65
2022/09/19 10:28:53;;;;;;;1.10;0.40;;;;;;;14.35;62.51;100400.06;4943469;28;97829;-65
2022/09/19 10:31:23;;;;;;;1.67;0.30;;;;;;;14.63;61.78;100390.97;4959084;28;97934;-71
2022/09/19 10:33:51;;;;;;;1.33;0.40;;;;;;;14.83;61.64;100394.44;4960971;28;97796;-71
2022/09/19 10:36:25;;;;;;;1.75;0.40;;;;;;;14.92;61.25;100396.16;4958187;28;97796;-71
2022/09/19 10:38:58;;;;;;;1.63;0.30;;;;;;;15.09;61.35;100401.06;4945174;28;98371;-65
2022/09/19 10:41:28;;;;;;;0.55;0.28;;;;;;;15.20;61.22;100394.31;4946851;28;97615;-65
2022/09/19 10:44:02;;;;;;;0.60;0.20;;;;;;;15.55;60.37;100402.88;4929953;28;97684;-65
2022/09/19 10:46:36;;;;;;;2.20;0.40;;;;;;;15.83;60.06;100409.16;4947430;28;97636;-65
2022/09/19 10:49:19;;;;;;;1.20;0.25;;;;;;;16.06;59.75;100407.31;4949439;28;97954;-66
2022/09/19 10:51:55;;;;;;;0.70;0.30;;;;;;;16.22;59.56;100401.53;4964196;28;99450;-65
2022/09/19 10:54:39;;;;;;;0.90;0.30;;;;;;;16.35;59.56;100404.22;4949739;28;97804;-70
2022/09/19 10:57:25;;;;;;;1.02;0.30;;;;;;;16.55;58.90;100408.38;4946688;28;97493;-66
2022/09/19 11:00:02;;;;;;;0.63;0.20;;;;;;;16.36;59.38;100408.53;4946014;28;97565;-70
2022/09/19 11:02:28;;;;;;;1.08;0.40;;;;;;;16.26;59.72;100408.75;4952109;28;97774;-66
2022/09/19 11:05:00;;;;;;;1.63;0.38;;;;;;;16.42;59.49;100414.66;4957202;28;98058;-66
2022/09/19 11:07:31;;;;;;;0.95;0.22;;;;;;;16.53;59.11;100412.50;4957419;28;99271;-66
2022/09/19 11:09:59;;;;;;;1.17;0.30;;;;;;;17.32;57.63;100407.25;4938566;28;97363;-71
2022/09/19 11:12:27;;;;;;;1.13;0.40;;;;;;;17.54;57.42;100409.13;4934701;28;97640;-71
2022/09/19 11:14:55;;;;;;;1.27;0.30;;;;;;;18.39;56.05;100412.38;4928372;28;98153;-71
2022/09/19 11:17:52;;;;;;;0.63;0.20;;;;;;;18.75;55.76;100416.72;4939684;28;97522;-71
2022/09/19 11:20:37;;;;;;;1.23;0.50;;;;;;;20.26;53.38;100418.19;4981388;28;97300;-66
2022/09/19 11:24:02;;;;;;;0.70;0.30;;;;;;;22.08;50.50;100413.47;4981652;28;97518;-67
2022/09/19 11:27:07;;;;;;;0.63;0.20;;;;;;;21.52;52.12;100416.81;4996625;28;98262;-72
2022/09/19 11:29:35;;;;;;;0.68;0.20;;;;;;;23.42;48.68;100425.03;5014731;28;97834;-67
2022/09/19 11:32:22;;;;;;;0.68;0.30;;;;;;;24.17;47.13;100421.31;4998466;28;105605;-72
2022/09/19 11:35:07;;;;;;;1.08;0.20;;;;;;;26.06;45.38;100415.75;4999397;28;98069;-67
2022/09/19 11:37:46;;;;;;;0.60;0.13;;;;;;;25.93;46.45;100426.19;4998607;28;97498;-69
2022/09/19 11:40:47;;;;;;;1.13;0.10;;;;;;;25.91;46.25;100420.25;4960854;28;105175;-68
2022/09/19 11:43:51;;;;;;;0.30;0.13;;;;;;;27.49;44.55;100420.13;4985588;28;97694;-71
2022/09/19 11:46:23;;;;;;;0.40;0.10;;;;;;;28.26;42.23;100421.03;4997580;28;97942;-72
2022/09/19 11:49:10;;;;;;;0.40;0.10;;;;;;;28.57;43.01;100417.63;4994539;28;97403;-68
2022/09/19 11:51:59;;;;;;;0.25;0.10;;;;;;;28.06;42.55;100413.03;4976497;28;97926;-68
2022/09/19 11:54:50;;;;;;;0.60;0.10;;;;;;;26.19;46.51;100412.34;5006318;28;97871;-68
2022/09/19 11:57:46;;;;;;;0.40;0.10;;;;;;;26.93;44.40;100408.91;4977929;28;98666;-68
2022/09/19 12:00:19;;;;;;;0.50;0.15;;;;;;;27.45;42.46;100408.22;4995572;28;98318;-68
2022/09/19 12:03:20;;;;;;;1.02;0.30;;;;;;;27.03;44.17;100403.84;4952219;28;97839;-73
2022/09/19 12:06:06;;;;;;;1.48;0.40;;;;;;;25.03;46.96;100404.56;4956122;28;97797;-72
2022/09/19 12:08:50;;;;;;;0.80;0.20;;;;;;;23.80;47.97;100398.88;4992659;28;99571;-72
2022/09/19 12:11:31;;;;;;;0.57;0.10;;;;;;;24.02;46.29;100403.72;4996459;28;97461;-67
2022/09/19 12:14:01;;;;;;;1.33;0.10;;;;;;;24.35;45.71;100405.19;4982183;28;98127;-72
2022/09/19 12:16:42;;;;;;;0.10;0.00;;;;;;;24.02;46.36;100395.47;4977773;28;97836;-72
2022/09/19 12:19:23;;;;;;;0.20;0.00;;;;;;;22.66;48.22;100391.22;4987732;28;98104;-72
2022/09/19 12:22:13;;;;;;;0.25;0.00;;;;;;;22.35;48.65;100392.72;4979191;28;97675;-72
2022/09/19 12:24:53;;;;;;;0.20;0.10;;;;;;;22.41;47.87;100376.81;4948544;28;97690;-72